createdAt,value
2019-02-27T00:02:45.181Z,56.10
2019-02-27T00:07:48.326Z,57.00
2019-02-27T00:12:52.014Z,47.15
2019-02-27T00:17:55.680Z,53.67
2019-02-27T00:22:58.702Z,48.00
2019-02-27T00:28:01.803Z,42.53
2019-02-27T00:33:05.376Z,44.10
2019-02-27T00:38:08.577Z,45.85
2019-02-27T00:43:28.434Z,35.30
2019-02-27T00:48:32.247Z,49.35
2019-02-27T00:53:35.323Z,49.30
2019-02-27T00:58:38.509Z,43.40
2019-02-27T01:03:41.669Z,40.12
2019-02-27T01:08:45.190Z,47.85
2019-02-27T01:13:48.393Z,40.55
2019-02-27T01:18:51.363Z,54.67
2019-02-27T01:23:54.648Z,39.23
2019-02-27T01:28:57.648Z,45.15
2019-02-27T01:34:00.721Z,38.78
2019-02-27T01:39:09.012Z,34.75
2019-02-27T01:44:13.702Z,41.20
2019-02-27T01:49:16.816Z,38.42
2019-02-27T01:54:20.075Z,41.30
2019-02-27T01:59:23.439Z,41.48
2019-02-27T02:04:26.685Z,37.95
2019-02-27T02:09:35.893Z,43.02
2019-02-27T02:15:16.834Z,46.80
2019-02-27T02:20:46.671Z,39.20
2019-02-27T02:26:23.727Z,42.37
2019-02-27T02:32:04.976Z,42.70
2019-02-27T02:38:14.213Z,44.75
2019-02-27T02:44:36.634Z,42.20
2019-02-27T02:50:29.201Z,40.28
2019-02-27T02:56:24.967Z,45.23
2019-02-27T03:01:57.819Z,44.73
2019-02-27T03:07:50.087Z,46.10
2019-02-27T03:13:45.779Z,41.05
2019-02-27T03:19:41.727Z,40.88
2019-02-27T03:25:40.112Z,43.17
2019-02-27T03:31:39.180Z,38.70
2019-02-27T03:37:21.504Z,36.30
2019-02-27T03:43:24.297Z,40.15
2019-02-27T03:49:17.040Z,39.18
2019-02-27T03:54:45.478Z,45.43
2019-02-27T04:00:52.593Z,36.13
2019-02-27T04:07:14.616Z,37.95
2019-02-27T04:12:17.662Z,47.20
2019-02-27T04:17:26.921Z,45.55
2019-02-27T04:22:29.979Z,38.50
2019-02-27T04:27:32.906Z,33.60
2019-02-27T04:32:35.929Z,39.78
2019-02-27T04:37:39.059Z,39.38
2019-02-27T04:42:42.041Z,33.73
2019-02-27T04:47:44.988Z,34.95
2019-02-27T04:52:48.072Z,33.92
2019-02-27T04:57:51.117Z,35.33
2019-02-27T05:02:54.178Z,31.02
2019-02-27T05:07:57.387Z,32.80
2019-02-27T05:13:00.386Z,32.10
2019-02-27T05:18:03.507Z,32.45
2019-02-27T05:23:06.481Z,24.45
2019-02-27T05:28:09.549Z,28.87
2019-02-27T05:33:12.608Z,28.23
2019-02-27T05:38:15.801Z,31.52
2019-02-27T05:43:18.795Z,31.20
2019-02-27T05:48:21.886Z,25.10
2019-02-27T05:53:24.891Z,38.28
2019-02-27T05:58:28.079Z,32.67
2019-02-27T06:03:31.074Z,39.70
2019-02-27T06:08:36.694Z,36.53
2019-02-27T06:13:39.589Z,40.43
2019-02-27T06:18:43.071Z,39.50
2019-02-27T06:23:46.119Z,49.67
2019-02-27T06:28:49.226Z,49.70
2019-02-27T06:33:52.326Z,37.38
2019-02-27T06:39:00.150Z,41.20
2019-02-27T06:44:01.513Z,41.07
2019-02-27T06:49:05.777Z,34.50
2019-02-27T06:54:08.968Z,35.90
2019-02-27T06:59:11.955Z,32.78
2019-02-27T07:04:15.047Z,39.42
2019-02-27T07:09:18.079Z,39.20
2019-02-27T07:14:21.409Z,38.38
2019-02-27T07:19:24.392Z,44.33
2019-02-27T07:24:27.445Z,37.95
2019-02-27T07:29:30.454Z,37.30
2019-02-27T07:34:33.437Z,28.80
2019-02-27T07:39:36.400Z,36.17
2019-02-27T07:44:39.554Z,32.10
2019-02-27T07:49:42.591Z,35.33
2019-02-27T07:54:45.953Z,34.18
2019-02-27T07:59:49.095Z,36.40
2019-02-27T08:04:54.724Z,36.57
2019-02-27T08:09:57.360Z,37.53
2019-02-27T08:15:00.336Z,40.28
2019-02-27T08:20:04.045Z,29.12
2019-02-27T08:25:08.791Z,36.75
2019-02-27T08:30:15.658Z,27.77
2019-02-27T08:35:18.700Z,23.70
2019-02-27T08:40:24.356Z,32.00
2019-02-27T08:45:27.111Z,31.85
2019-02-27T08:50:31.765Z,32.88
2019-02-27T08:55:39.024Z,40.95
2019-02-27T09:00:40.499Z,46.35
2019-02-27T09:05:43.545Z,41.90
2019-02-27T09:10:46.588Z,51.48
2019-02-27T09:15:49.541Z,30.80
2019-02-27T09:20:53.532Z,34.00
2019-02-27T09:25:57.645Z,48.73
2019-02-27T09:31:04.298Z,45.58
2019-02-27T09:36:08.037Z,63.08
2019-02-27T09:41:12.406Z,59.47
2019-02-27T09:46:19.297Z,43.00
2019-02-27T09:51:22.179Z,64.07
2019-02-27T09:56:29.219Z,57.53
2019-02-27T10:01:34.163Z,61.10
2019-02-27T10:06:35.850Z,54.48
2019-02-27T10:11:38.800Z,54.98
2019-02-27T10:16:41.856Z,57.78
2019-02-27T10:21:45.386Z,54.95
2019-02-27T10:26:48.505Z,54.03
2019-02-27T10:31:51.492Z,39.48
2019-02-27T10:36:54.664Z,60.60
2019-02-27T10:41:57.726Z,63.00
2019-02-27T10:47:00.841Z,51.88
2019-02-27T10:52:03.924Z,49.00
2019-02-27T10:57:06.944Z,56.35
2019-02-27T11:02:12.519Z,39.70
2019-02-27T11:07:15.903Z,43.80
2019-02-27T11:12:19.826Z,38.42
2019-02-27T11:17:22.767Z,42.38
2019-02-27T11:22:25.753Z,29.57
2019-02-27T11:27:28.775Z,38.95
2019-02-27T11:32:31.764Z,32.73
2019-02-27T11:37:34.982Z,32.58
2019-02-27T11:42:37.957Z,34.20
2019-02-27T11:47:45.075Z,32.60
2019-02-27T11:52:49.058Z,32.50
2019-02-27T11:57:51.283Z,30.30
2019-02-27T12:02:54.283Z,26.40
2019-02-27T12:07:57.516Z,26.82
2019-02-27T12:13:01.302Z,17.67
2019-02-27T12:18:04.882Z,22.32
2019-02-27T12:23:10.086Z,25.97
2019-02-27T12:28:15.231Z,21.87
2019-02-27T12:33:18.312Z,23.67
2019-02-27T12:38:21.368Z,29.55
2019-02-27T12:43:24.427Z,33.98
2019-02-27T12:48:27.419Z,31.42
2019-02-27T12:53:30.517Z,29.18
2019-02-27T12:58:33.601Z,29.72
2019-02-27T13:03:36.719Z,25.97
2019-02-27T13:08:39.856Z,34.75
2019-02-27T13:13:43.280Z,38.67
2019-02-27T13:18:46.588Z,36.00
2019-02-27T13:23:49.633Z,39.17
2019-02-27T13:28:52.973Z,39.50
2019-02-27T13:33:56.290Z,46.98
2019-02-27T13:38:59.490Z,40.08
2019-02-27T13:44:02.697Z,39.42
2019-02-27T13:49:05.643Z,42.40
2019-02-27T13:54:09.012Z,57.93
2019-02-27T13:59:12.065Z,53.58
2019-02-27T14:04:15.118Z,38.95
2019-02-27T14:09:19.088Z,41.40
2019-02-27T14:14:22.461Z,39.92
2019-02-27T14:19:25.583Z,47.67
2019-02-27T14:24:28.656Z,56.75
2019-02-27T14:29:32.034Z,47.08
2019-02-27T14:34:35.451Z,50.40
2019-02-27T14:39:38.555Z,46.08
2019-02-27T14:44:41.570Z,42.55
2019-02-27T14:49:44.644Z,45.73
2019-02-27T14:54:47.957Z,47.60
2019-02-27T14:59:51.293Z,39.60
2019-02-27T15:04:54.389Z,54.48
2019-02-27T15:09:57.474Z,47.13
2019-02-27T15:15:00.450Z,57.33
2019-02-27T15:20:05.617Z,44.10
2019-02-27T15:25:11.655Z,33.00
2019-02-27T15:30:18.076Z,45.87
2019-02-27T15:35:22.193Z,58.42
2019-02-27T15:40:28.565Z,53.23
2019-02-27T15:45:30.992Z,45.30
2019-02-27T15:50:34.208Z,40.88
2019-02-27T15:55:37.958Z,37.80
2019-02-27T16:00:41.076Z,33.55
2019-02-27T16:05:44.171Z,31.95
2019-02-27T16:10:54.530Z,37.48
2019-02-27T16:15:52.520Z,36.68
2019-02-27T16:20:55.969Z,29.77
2019-02-27T16:25:58.965Z,28.73
2019-02-27T16:31:05.911Z,29.87
2019-02-27T16:36:07.433Z,31.97
2019-02-27T16:41:10.956Z,28.55
2019-02-27T16:46:14.098Z,28.62
2019-02-27T16:51:17.298Z,30.48
2019-02-27T16:56:20.471Z,28.73
2019-02-27T17:01:29.174Z,34.90
2019-02-27T17:06:29.173Z,34.70
2019-02-27T17:11:33.212Z,35.90
2019-02-27T17:16:38.421Z,35.50
2019-02-27T17:21:41.769Z,34.45
2019-02-27T17:26:46.423Z,35.95
2019-02-27T17:31:52.639Z,39.23
2019-02-27T17:36:54.847Z,34.15
2019-02-27T17:41:57.929Z,37.50
2019-02-27T17:47:00.974Z,41.55
2019-02-27T17:52:11.092Z,33.95
2019-02-27T17:57:09.213Z,35.48
2019-02-27T18:02:12.386Z,39.80
2019-02-27T18:07:15.780Z,38.20
2019-02-27T18:12:18.837Z,44.15
2019-02-27T18:17:21.959Z,41.53
2019-02-27T18:22:24.927Z,37.48
2019-02-27T18:27:28.019Z,34.25
2019-02-27T18:32:31.013Z,37.95
2019-02-27T18:37:33.995Z,36.95
2019-02-27T18:42:37.028Z,38.50
2019-02-27T18:47:40.115Z,35.65
2019-02-27T18:52:43.388Z,34.70
2019-02-27T18:57:47.598Z,31.97
2019-02-27T19:02:53.260Z,31.27
2019-02-27T19:07:56.320Z,39.03
2019-02-27T19:13:00.767Z,44.25
2019-02-27T19:18:06.543Z,40.15
2019-02-27T19:23:10.232Z,46.73
2019-02-27T19:28:13.323Z,40.63
2019-02-27T19:33:16.435Z,47.98
2019-02-27T19:38:19.452Z,54.18
2019-02-27T19:43:22.593Z,51.48
2019-02-27T19:48:26.256Z,46.70
2019-02-27T19:53:30.482Z,53.85
2019-02-27T19:58:33.678Z,52.13
2019-02-27T20:03:36.980Z,46.85
2019-02-27T20:08:44.392Z,54.63
2019-02-27T20:13:45.140Z,53.33
2019-02-27T20:18:54.780Z,56.65
2019-02-27T20:23:53.344Z,62.15
2019-02-27T20:28:56.325Z,60.23
2019-02-27T20:33:59.301Z,63.78
2019-02-27T20:39:04.168Z,56.00
2019-02-27T20:44:07.167Z,65.35
2019-02-27T20:49:10.466Z,66.12
2019-02-27T20:54:15.430Z,58.48
2019-02-27T20:59:18.957Z,69.70
2019-02-27T21:04:22.124Z,76.95
2019-02-27T21:09:25.269Z,68.65
2019-02-27T21:14:28.269Z,57.83
2019-02-27T21:19:33.854Z,54.38
2019-02-27T21:24:37.334Z,57.75
2019-02-27T21:29:43.380Z,65.62
2019-02-27T21:34:46.275Z,53.55
2019-02-27T21:39:49.331Z,53.45
2019-02-27T21:44:52.547Z,53.38
2019-02-27T21:49:55.522Z,60.17
2019-02-27T21:54:58.500Z,51.63
2019-02-27T22:00:01.493Z,59.60
2019-02-27T22:05:05.434Z,42.75
2019-02-27T22:10:10.298Z,49.55
2019-02-27T22:15:25.871Z,56.70
2019-02-27T22:20:28.823Z,56.15
2019-02-27T22:25:31.877Z,59.60
2019-02-27T22:30:34.948Z,55.17
2019-02-27T22:35:38.614Z,56.55
2019-02-27T22:40:41.881Z,53.48
2019-02-27T22:45:44.841Z,58.15
2019-02-27T22:50:47.996Z,62.70
2019-02-27T22:55:51.047Z,59.83
2019-02-27T23:01:11.127Z,56.92
2019-02-27T23:06:14.378Z,47.65
2019-02-27T23:11:18.199Z,52.35
2019-02-27T23:16:21.227Z,51.73
2019-02-27T23:21:26.638Z,44.67
2019-02-27T23:26:48.202Z,60.58
2019-02-27T23:31:51.148Z,52.60
2019-02-27T23:36:55.828Z,46.92
2019-02-27T23:41:59.425Z,49.10
2019-02-27T23:47:02.536Z,55.70
2019-02-27T23:52:05.510Z,50.03
2019-02-27T23:57:08.649Z,49.75
